Time;durP1;ratioP1;P1;durP2;ratioP2;P2;SDS_P1;SDS_P2;PMS_P1;PMS_P2;Temp;Humidity;BMP_temperature;BMP_pressure;BME280_temperature;BME280_humidity;BME280_pressure;Samples;Min_cycle;Max_cycle;Signal;HPM_P1;HPM_P2
2023/06/07 00:00:11;;;;;;;17.83;15.70;;;13.90;99.90;;;;;;5983149;24;20423;-62
2023/06/07 00:02:38;;;;;;;17.40;16.03;;;13.90;99.90;;;;;;5982601;24;20420;-62
2023/06/07 00:05:06;;;;;;;17.23;15.47;;;13.90;99.90;;;;;;5982817;24;20440;-62
2023/06/07 00:07:35;;;;;;;16.40;15.00;;;13.80;99.90;;;;;;5982999;24;20419;-62
2023/06/07 00:10:02;;;;;;;18.13;16.43;;;13.80;99.90;;;;;;5982816;24;20420;-62
2023/06/07 00:12:30;;;;;;;19.07;17.37;;;13.80;99.90;;;;;;5982959;24;20430;-62
2023/06/07 00:14:59;;;;;;;18.50;16.70;;;13.80;99.90;;;;;;5983127;24;20502;-62
2023/06/07 00:17:27;;;;;;;15.07;13.67;;;13.90;99.90;;;;;;5982844;24;20498;-62
2023/06/07 00:19:55;;;;;;;15.43;14.03;;;13.90;99.90;;;;;;5982886;24;20491;-62
2023/06/07 00:22:22;;;;;;;16.53;14.90;;;13.90;99.90;;;;;;5982761;24;20523;-62
2023/06/07 00:24:50;;;;;;;12.80;10.20;;;13.90;99.90;;;;;;5982952;24;20739;-62
2023/06/07 00:27:18;;;;;;;11.57;9.03;;;14.00;99.90;;;;;;5982193;24;20420;-62
2023/06/07 00:29:46;;;;;;;10.93;7.90;;;14.10;99.90;;;;;;5983029;24;20434;-62
2023/06/07 00:32:13;;;;;;;11.83;8.40;;;14.30;99.90;;;;;;5982493;24;20419;-62
2023/06/07 00:34:39;;;;;;;10.60;8.70;;;14.30;99.90;;;;;;5982978;24;20426;-62
2023/06/07 00:37:06;;;;;;;15.60;9.23;;;14.40;99.90;;;;;;5982365;24;20426;-62
2023/06/07 00:39:33;;;;;;;12.60;8.50;;;14.50;99.90;;;;;;5982849;24;20734;-62
2023/06/07 00:42:00;;;;;;;12.73;7.60;;;14.50;99.90;;;;;;5982506;24;20428;-62
2023/06/07 00:44:26;;;;;;;9.50;7.70;;;14.50;99.90;;;;;;5983010;24;20534;-62
2023/06/07 00:46:55;;;;;;;10.87;8.50;;;14.50;99.90;;;;;;5982740;24;20419;-62
2023/06/07 00:49:22;;;;;;;12.13;8.40;;;14.40;99.90;;;;;;5982817;24;20743;-62
2023/06/07 00:51:49;;;;;;;13.90;9.53;;;14.50;99.90;;;;;;5982512;24;20764;-62
2023/06/07 00:54:17;;;;;;;12.33;11.13;;;14.50;99.90;;;;;;5982248;24;20419;-62
2023/06/07 00:56:45;;;;;;;13.43;12.13;;;14.50;99.90;;;;;;5982667;24;20423;-62
2023/06/07 00:59:12;;;;;;;16.20;13.97;;;14.50;99.90;;;;;;5982329;24;20612;-62
2023/06/07 01:01:39;;;;;;;16.43;14.83;;;14.50;99.90;;;;;;5982311;24;20434;-62
2023/06/07 01:04:09;;;;;;;14.13;11.97;;;14.40;99.90;;;;;;5981848;24;20503;-62
2023/06/07 01:06:37;;;;;;;18.40;16.87;;;14.40;99.90;;;;;;5982379;24;20428;-62
2023/06/07 01:09:05;;;;;;;18.87;15.90;;;14.30;99.90;;;;;;5982365;24;20457;-62
2023/06/07 01:11:33;;;;;;;20.60;18.50;;;14.30;99.90;;;;;;5982577;24;20441;-62
2023/06/07 01:14:00;;;;;;;18.23;16.37;;;14.40;99.90;;;;;;5982327;24;20422;-62
2023/06/07 01:16:27;;;;;;;22.73;20.13;;;14.40;99.90;;;;;;5982416;24;20893;-62
2023/06/07 01:18:56;;;;;;;26.50;24.30;;;14.40;99.90;;;;;;5982184;24;20430;-62
2023/06/07 01:21:25;;;;;;;31.93;29.67;;;14.40;99.90;;;;;;5982175;24;20423;-62
2023/06/07 01:23:56;;;;;;;41.23;38.90;;;14.40;99.90;;;;;;5982055;24;20426;-62
2023/06/07 01:26:26;;;;;;;59.73;56.97;;;14.30;99.90;;;;;;5982265;24;20931;-62
2023/06/07 01:28:54;;;;;;;68.77;65.67;;;14.30;99.90;;;;;;5982125;24;20593;-62
2023/06/07 01:31:22;;;;;;;119.63;114.57;;;14.20;99.90;;;;;;5982522;24;20423;-62
2023/06/07 01:33:50;;;;;;;78.57;75.17;;;14.20;99.90;;;;;;5980423;24;20426;-62
2023/06/07 01:36:18;;;;;;;84.00;80.20;;;14.20;99.90;;;;;;5982416;24;20415;-62
2023/06/07 01:38:46;;;;;;;79.07;75.60;;;14.20;99.90;;;;;;5982080;24;20893;-62
2023/06/07 01:41:15;;;;;;;78.47;75.00;;;14.20;99.90;;;;;;5982033;24;20420;-62
2023/06/07 01:43:42;;;;;;;73.40;69.97;;;14.30;99.90;;;;;;5981664;24;20403;-62
2023/06/07 01:46:11;;;;;;;83.53;79.73;;;14.30;99.90;;;;;;5981878;24;20985;-62
2023/06/07 01:48:37;;;;;;;79.27;75.33;;;14.30;99.90;;;;;;5981932;24;20420;-62
2023/06/07 01:51:04;;;;;;;92.13;88.33;;;14.20;99.90;;;;;;5981571;24;20427;-62
2023/06/07 01:53:31;;;;;;;79.67;76.43;;;14.20;99.90;;;;;;5981897;24;20419;-62
2023/06/07 01:56:05;;;;;;;104.70;100.33;;;14.20;99.90;;;;;;5982343;24;20423;-62
2023/06/07 01:58:40;;;;;;;113.33;108.80;;;14.20;99.90;;;;;;5982220;24;20873;-62
2023/06/07 02:01:18;;;;;;;128.60;123.10;;;14.20;99.90;;;;;;5982256;24;20404;-62
2023/06/07 02:03:51;;;;;;;82.20;78.57;;;14.10;99.90;;;;;;5980964;24;20571;-62
2023/06/07 02:06:25;;;;;;;112.63;107.90;;;14.20;99.90;;;;;;5981763;24;20753;-62
2023/06/07 02:08:54;;;;;;;128.40;122.67;;;14.30;99.90;;;;;;5981449;24;20404;-62
2023/06/07 02:11:23;;;;;;;131.40;125.83;;;14.30;99.90;;;;;;5982179;24;20474;-62
2023/06/07 02:13:52;;;;;;;125.73;120.80;;;14.30;99.90;;;;;;5981908;24;20420;-62
2023/06/07 02:16:32;;;;;;;163.03;156.97;;;14.40;99.90;;;;;;5984251;24;20427;-62
2023/06/07 02:18:59;;;;;;;141.77;135.97;;;14.40;99.90;;;;;;5983945;24;20403;-62
2023/06/07 02:21:26;;;;;;;161.73;155.43;;;14.50;99.90;;;;;;5984166;24;20428;-62
2023/06/07 02:23:52;;;;;;;157.77;151.53;;;14.50;99.90;;;;;;5983332;24;20426;-62
2023/06/07 02:26:20;;;;;;;156.80;150.77;;;14.40;99.90;;;;;;5984043;24;20443;-62
2023/06/07 02:28:47;;;;;;;181.90;175.27;;;14.40;99.90;;;;;;5983789;24;20419;-62
2023/06/07 02:31:17;;;;;;;160.13;153.90;;;14.40;99.90;;;;;;5983903;24;20432;-62
2023/06/07 02:33:43;;;;;;;195.53;188.27;;;14.40;99.90;;;;;;5983384;24;20790;-62
2023/06/07 02:36:12;;;;;;;183.60;177.00;;;14.40;99.90;;;;;;5983639;24;20415;-62
2023/06/07 02:38:39;;;;;;;164.77;158.57;;;14.40;99.90;;;;;;5983052;24;20428;-62
2023/06/07 02:41:06;;;;;;;214.57;207.00;;;14.40;99.90;;;;;;5983161;24;20753;-63
2023/06/07 02:43:33;;;;;;;216.70;209.10;;;14.40;99.90;;;;;;5983427;24;20408;-62
2023/06/07 02:45:59;;;;;;;263.43;254.13;;;14.30;99.90;;;;;;5983443;24;20450;-62
2023/06/07 02:48:28;;;;;;;288.20;278.30;;;14.30;99.90;;;;;;5983734;24;20751;-62
2023/06/07 02:50:54;;;;;;;323.73;311.77;;;14.30;99.90;;;;;;5983838;24;20427;-62
2023/06/07 02:53:22;;;;;;;335.53;322.67;;;14.30;99.90;;;;;;5982833;24;20419;-64
2023/06/07 02:55:49;;;;;;;320.23;307.77;;;14.20;99.90;;;;;;5983123;24;20419;-64
2023/06/07 02:58:15;;;;;;;290.63;280.13;;;14.30;99.90;;;;;;5983152;24;20726;-64
2023/06/07 03:00:49;;;;;;;249.70;240.60;;;14.30;99.90;;;;;;5981327;24;20419;-64
2023/06/07 03:03:16;;;;;;;203.50;196.03;;;14.40;99.90;;;;;;5983333;24;20426;-64
2023/06/07 03:05:48;;;;;;;205.23;197.53;;;14.40;99.90;;;;;;5983566;24;20453;-64
2023/06/07 03:08:14;;;;;;;219.77;211.77;;;14.50;99.90;;;;;;5982891;24;20442;-64
2023/06/07 03:10:41;;;;;;;236.80;228.30;;;14.50;99.90;;;;;;5983196;24;20427;-64
2023/06/07 03:13:08;;;;;;;261.70;252.10;;;14.50;99.90;;;;;;5981010;24;20419;-64
2023/06/07 03:15:35;;;;;;;267.87;258.37;;;14.50;99.90;;;;;;5983166;24;20415;-64
2023/06/07 03:18:03;;;;;;;311.77;300.20;;;14.50;99.90;;;;;;5983409;24;20419;-64
2023/06/07 03:20:34;;;;;;;336.07;323.10;;;14.50;99.90;;;;;;5983369;24;20419;-64
2023/06/07 03:23:02;;;;;;;360.27;345.87;;;14.60;99.90;;;;;;5983175;24;20435;-64
2023/06/07 03:25:30;;;;;;;340.20;326.83;;;14.60;99.90;;;;;;5982860;24;20454;-64
2023/06/07 03:27:56;;;;;;;312.27;300.97;;;14.60;99.90;;;;;;5982892;24;20419;-64
2023/06/07 03:30:23;;;;;;;310.00;298.23;;;14.60;99.90;;;;;;5983587;24;20419;-64
2023/06/07 03:32:50;;;;;;;317.27;304.97;;;14.60;99.90;;;;;;5982978;24;20419;-64
2023/06/07 03:35:18;;;;;;;311.10;299.73;;;14.60;99.90;;;;;;5983058;24;20420;-64
2023/06/07 03:37:45;;;;;;;280.07;269.47;;;14.60;99.90;;;;;;5983268;24;20475;-64
2023/06/07 03:40:14;;;;;;;281.57;271.43;;;14.60;99.90;;;;;;5982908;24;20429;-64
2023/06/07 03:42:41;;;;;;;291.67;281.00;;;14.60;99.90;;;;;;5982509;24;20813;-64
2023/06/07 03:45:08;;;;;;;273.77;263.70;;;14.60;99.90;;;;;;5983381;24;20430;-64
2023/06/07 03:47:37;;;;;;;247.53;238.77;;;14.70;99.90;;;;;;5983238;24;20420;-64
2023/06/07 03:50:04;;;;;;;214.03;206.00;;;14.70;99.90;;;;;;5983238;24;20807;-64
2023/06/07 03:52:31;;;;;;;188.10;180.67;;;14.80;99.90;;;;;;5982872;24;20452;-64
2023/06/07 03:54:58;;;;;;;171.80;164.97;;;14.90;99.90;;;;;;5983532;24;20423;-64
2023/06/07 03:57:26;;;;;;;210.70;203.17;;;14.90;99.90;;;;;;5982638;24;20425;-64
2023/06/07 03:59:53;;;;;;;234.27;225.53;;;15.00;99.90;;;;;;5982882;24;20426;-64
2023/06/07 04:02:19;;;;;;;270.77;260.97;;;15.00;99.90;;;;;;5982489;24;20905;-64
2023/06/07 04:04:46;;;;;;;227.70;219.23;;;14.90;99.90;;;;;;5982812;24;20426;-64
2023/06/07 04:07:16;;;;;;;248.97;240.00;;;14.90;99.90;;;;;;5982455;24;20450;-64
2023/06/07 04:09:43;;;;;;;267.40;257.47;;;14.90;99.90;;;;;;5982753;24;20426;-64
2023/06/07 04:12:10;;;;;;;256.13;246.67;;;14.90;99.90;;;;;;5982585;24;20420;-64
2023/06/07 04:14:38;;;;;;;339.43;325.33;;;14.90;99.90;;;;;;5982180;24;20883;-64
2023/06/07 04:17:05;;;;;;;144.83;139.00;;;14.90;99.90;;;;;;5981036;24;20415;-64
2023/06/07 04:19:32;;;;;;;114.60;109.50;;;15.00;99.90;;;;;;5982755;24;20430;-64
2023/06/07 04:21:59;;;;;;;105.30;100.17;;;15.10;99.90;;;;;;5982797;24;20430;-64
2023/06/07 04:24:26;;;;;;;134.87;129.13;;;15.10;99.90;;;;;;5982768;24;20420;-64
2023/06/07 04:26:56;;;;;;;187.33;180.23;;;15.10;99.90;;;;;;5982590;24;20439;-64
2023/06/07 04:29:25;;;;;;;130.13;124.60;;;15.20;99.90;;;;;;5983334;24;20504;-64
2023/06/07 04:31:56;;;;;;;177.53;170.43;;;15.10;99.90;;;;;;5982990;24;20767;-64
2023/06/07 04:34:24;;;;;;;128.97;123.53;;;15.20;99.90;;;;;;5982593;24;20707;-64
2023/06/07 04:36:51;;;;;;;157.83;151.00;;;15.20;99.90;;;;;;5982928;24;20775;-64
2023/06/07 04:39:20;;;;;;;141.50;135.30;;;15.20;99.90;;;;;;5982540;24;20420;-64
2023/06/07 04:41:48;;;;;;;138.03;132.17;;;15.20;99.90;;;;;;5982829;24;20797;-64
2023/06/07 04:44:28;;;;;;;128.03;122.53;;;15.20;99.90;;;;;;5981212;24;20755;-64
2023/06/07 04:46:57;;;;;;;112.37;106.97;;;15.30;99.90;;;;;;5982407;24;20794;-64
2023/06/07 04:49:25;;;;;;;159.47;153.27;;;15.30;99.90;;;;;;5982875;24;20456;-64
2023/06/07 04:51:52;;;;;;;197.63;189.63;;;15.30;99.90;;;;;;5982565;24;20420;-64
2023/06/07 04:54:19;;;;;;;226.33;217.03;;;15.40;99.90;;;;;;5980650;24;20682;-64
2023/06/07 04:56:46;;;;;;;207.23;199.47;;;15.40;99.90;;;;;;5982799;24;20420;-65
2023/06/07 04:59:14;;;;;;;210.20;202.10;;;15.40;99.90;;;;;;5982448;24;20426;-64
2023/06/07 05:01:43;;;;;;;168.23;161.30;;;15.40;99.90;;;;;;5982345;24;20419;-64
2023/06/07 05:04:11;;;;;;;124.67;119.63;;;15.40;99.90;;;;;;5982297;24;20423;-64
2023/06/07 05:06:38;;;;;;;85.50;81.17;;;15.50;99.90;;;;;;5982412;24;20526;-64
2023/06/07 05:09:06;;;;;;;86.40;82.07;;;15.50;99.90;;;;;;5982148;24;20458;-64
2023/06/07 05:11:33;;;;;;;68.20;64.37;;;15.50;99.90;;;;;;5982848;24;20426;-64
2023/06/07 05:14:00;;;;;;;81.90;77.67;;;15.50;99.90;;;;;;5982368;24;20435;-64
2023/06/07 05:16:27;;;;;;;75.17;70.93;;;15.50;99.90;;;;;;5981062;24;20419;-64
2023/06/07 05:18:56;;;;;;;66.17;62.33;;;15.60;99.90;;;;;;5981857;24;20475;-64
2023/06/07 05:21:24;;;;;;;52.90;49.87;;;15.60;99.90;;;;;;5982009;24;20424;-64
2023/06/07 05:23:51;;;;;;;65.33;61.77;;;15.70;99.90;;;;;;5981767;24;20423;-64
2023/06/07 05:26:18;;;;;;;61.13;57.37;;;15.70;99.90;;;;;;5981754;24;20944;-64
2023/06/07 05:28:45;;;;;;;40.27;37.37;;;15.80;99.90;;;;;;5982259;24;20541;-64
2023/06/07 05:31:12;;;;;;;53.63;50.57;;;15.80;99.90;;;;;;5982558;24;20436;-64
2023/06/07 05:33:39;;;;;;;38.30;35.00;;;15.80;99.90;;;;;;5981408;24;20476;-64
2023/06/07 05:36:07;;;;;;;39.57;36.57;;;15.90;99.90;;;;;;5982042;24;20502;-66
2023/06/07 05:38:35;;;;;;;27.67;24.77;;;15.90;99.90;;;;;;5981255;24;20420;-64
2023/06/07 05:41:02;;;;;;;38.30;35.17;;;16.00;99.90;;;;;;5982180;24;20419;-64
2023/06/07 05:43:29;;;;;;;37.50;34.10;;;16.10;99.90;;;;;;5981834;24;20404;-64
2023/06/07 05:45:55;;;;;;;31.43;28.80;;;16.30;99.90;;;;;;5982120;24;20427;-64
2023/06/07 05:48:22;;;;;;;39.70;37.00;;;16.50;99.90;;;;;;5981735;24;20426;-64
2023/06/07 05:50:50;;;;;;;21.63;19.33;;;16.70;99.90;;;;;;5982304;24;20431;-64
2023/06/07 05:53:17;;;;;;;19.80;14.47;;;16.90;99.90;;;;;;5980359;24;20423;-64
2023/06/07 05:55:47;;;;;;;17.00;12.57;;;17.00;99.90;;;;;;5982253;24;20420;-64
2023/06/07 05:58:14;;;;;;;25.07;11.50;;;17.10;99.90;;;;;;5980905;24;20464;-64
2023/06/07 06:00:44;;;;;;;19.17;11.53;;;17.10;99.90;;;;;;5982012;24;20426;-64
2023/06/07 06:03:11;;;;;;;17.77;10.33;;;17.10;99.90;;;;;;5981640;24;20420;-64
2023/06/07 06:05:38;;;;;;;21.17;10.17;;;17.10;99.90;;;;;;5982384;24;20419;-64
2023/06/07 06:08:05;;;;;;;18.10;9.80;;;17.10;99.90;;;;;;5981340;24;20518;-65
2023/06/07 06:10:32;;;;;;;17.97;9.17;;;17.00;99.90;;;;;;5981111;24;20426;-64
2023/06/07 06:13:00;;;;;;;15.90;10.50;;;17.00;99.90;;;;;;5981267;24;20739;-64
2023/06/07 06:15:27;;;;;;;22.33;11.17;;;16.90;99.90;;;;;;5981598;24;20479;-64
2023/06/07 06:17:54;;;;;;;17.50;10.83;;;16.80;99.90;;;;;;5981688;24;20420;-64
2023/06/07 06:20:21;;;;;;;18.63;9.47;;;16.80;99.90;;;;;;5981532;24;20426;-64
2023/06/07 06:22:48;;;;;;;14.97;9.97;;;16.90;99.90;;;;;;5981767;24;20426;-64
2023/06/07 06:25:15;;;;;;;14.70;9.70;;;16.90;99.90;;;;;;5982002;24;20419;-64
2023/06/07 06:27:42;;;;;;;19.27;11.77;;;16.90;99.90;;;;;;5981733;24;20440;-64
2023/06/07 06:30:11;;;;;;;25.00;17.37;;;16.90;99.90;;;;;;5981732;24;20442;-64
2023/06/07 06:32:38;;;;;;;17.80;12.50;;;16.90;99.90;;;;;;5981087;24;20912;-64
2023/06/07 06:35:07;;;;;;;25.70;17.90;;;16.90;99.90;;;;;;5978728;24;20514;-63
2023/06/07 06:37:34;;;;;;;40.40;37.13;;;16.80;99.90;;;;;;5980740;24;20483;-63
2023/06/07 06:40:00;;;;;;;29.33;26.47;;;16.80;99.90;;;;;;5981043;24;20508;-63
2023/06/07 06:42:27;;;;;;;121.43;116.17;;;16.60;99.90;;;;;;5980136;24;20427;-61
2023/06/07 06:44:54;;;;;;;139.13;132.67;;;16.50;99.90;;;;;;5981726;24;20919;-62
2023/06/07 06:47:24;;;;;;;332.00;319.83;;;16.40;99.90;;;;;;5981163;24;20474;-62
2023/06/07 06:49:53;;;;;;;297.17;286.63;;;16.40;99.90;;;;;;5981717;24;20783;-62
2023/06/07 06:52:20;;;;;;;414.50;397.30;;;16.40;99.90;;;;;;5980391;24;20440;-61
2023/06/07 06:54:46;;;;;;;498.77;477.57;;;16.50;99.90;;;;;;5982146;24;20179;-61
2023/06/07 06:57:14;;;;;;;404.77;389.37;;;16.60;99.90;;;;;;5982065;24;20419;-61
2023/06/07 06:59:40;;;;;;;290.33;280.13;;;16.70;99.90;;;;;;5982051;24;20420;-61
2023/06/07 07:02:07;;;;;;;120.83;115.53;;;16.90;99.90;;;;;;5983197;24;20451;-61
2023/06/07 07:04:35;;;;;;;113.80;108.33;;;16.90;99.90;;;;;;5983619;24;20434;-61
2023/06/07 07:07:02;;;;;;;65.30;61.70;;;17.00;99.90;;;;;;5983166;24;20947;-61
2023/06/07 07:09:30;;;;;;;71.30;67.53;;;17.00;99.90;;;;;;5983799;24;20757;-61
2023/06/07 07:11:57;;;;;;;32.07;29.23;;;17.10;99.90;;;;;;5983468;24;20419;-61
2023/06/07 07:14:23;;;;;;;30.43;28.03;;;17.00;99.90;;;;;;5983426;24;20443;-61
2023/06/07 07:16:50;;;;;;;19.27;12.17;;;17.00;99.90;;;;;;5983611;24;20827;-61
2023/06/07 07:19:17;;;;;;;99.30;94.60;;;17.00;99.90;;;;;;5983747;24;20503;-61
2023/06/07 07:21:45;;;;;;;53.07;49.63;;;17.10;99.90;;;;;;5983516;24;20908;-61
2023/06/07 07:24:12;;;;;;;27.27;24.60;;;17.10;99.90;;;;;;5983256;24;20419;-61
2023/06/07 07:26:39;;;;;;;29.57;25.47;;;17.10;99.90;;;;;;5983375;24;20824;-61
2023/06/07 07:29:06;;;;;;;21.63;11.90;;;17.20;99.90;;;;;;5983472;24;20423;-61
2023/06/07 07:31:33;;;;;;;27.37;24.67;;;17.20;99.90;;;;;;5983654;24;20419;-62
2023/06/07 07:34:00;;;;;;;14.93;10.63;;;17.20;99.90;;;;;;5982074;24;20423;-62
2023/06/07 07:36:27;;;;;;;14.40;8.67;;;17.30;99.90;;;;;;5983611;24;20724;-62
2023/06/07 07:38:57;;;;;;;16.47;10.30;;;17.30;99.90;;;;;;5983120;24;20452;-62
2023/06/07 07:41:23;;;;;;;18.00;9.40;;;17.40;99.90;;;;;;5983069;24;20459;-62
2023/06/07 07:43:51;;;;;;;17.37;11.73;;;17.40;99.90;;;;;;5982626;24;20488;-62
2023/06/07 07:46:18;;;;;;;15.63;9.80;;;17.60;99.90;;;;;;5983148;24;20419;-62
2023/06/07 07:48:45;;;;;;;15.90;9.67;;;17.60;99.90;;;;;;5982720;24;20460;-62
2023/06/07 07:51:12;;;;;;;13.47;8.10;;;17.60;99.90;;;;;;5983522;24;20416;-62
2023/06/07 07:53:39;;;;;;;15.87;9.83;;;17.40;99.90;;;;;;5982973;24;20415;-61
2023/06/07 07:56:07;;;;;;;17.40;10.60;;;17.10;99.90;;;;;;5983460;24;20423;-61
2023/06/07 07:58:34;;;;;;;17.67;15.73;;;17.10;99.90;;;;;;5983095;24;20415;-61
2023/06/07 08:01:01;;;;;;;35.67;32.80;;;17.30;99.90;;;;;;5983209;24;20438;-61
2023/06/07 08:03:28;;;;;;;20.50;14.83;;;17.50;99.90;;;;;;5982562;24;20476;-61
2023/06/07 08:05:55;;;;;;;17.43;11.60;;;17.50;99.90;;;;;;5982367;24;20416;-62
2023/06/07 08:08:21;;;;;;;16.20;8.90;;;17.40;99.90;;;;;;5982225;24;20448;-62
2023/06/07 08:10:48;;;;;;;13.50;8.67;;;17.40;99.90;;;;;;5983197;24;20427;-62
2023/06/07 08:13:17;;;;;;;21.23;10.47;;;17.30;99.90;;;;;;5982033;24;20742;-62
2023/06/07 08:15:46;;;;;;;16.93;11.20;;;17.30;99.90;;;;;;5983053;24;20947;-62
2023/06/07 08:18:13;;;;;;;17.20;11.93;;;17.40;99.90;;;;;;5983000;24;20416;-62
2023/06/07 08:20:40;;;;;;;17.60;10.33;;;17.60;99.90;;;;;;5983148;24;20427;-62
2023/06/07 08:23:07;;;;;;;17.13;10.57;;;17.50;99.90;;;;;;5982727;24;20901;-62
2023/06/07 08:25:33;;;;;;;18.17;11.47;;;17.50;99.90;;;;;;5983166;24;20424;-62
2023/06/07 08:28:00;;;;;;;16.70;10.13;;;17.50;99.90;;;;;;5982361;24;20440;-62
2023/06/07 08:30:28;;;;;;;17.27;9.50;;;17.50;99.90;;;;;;5983156;24;20442;-62
2023/06/07 08:32:55;;;;;;;18.33;11.30;;;17.40;99.90;;;;;;5982737;24;20419;-62
2023/06/07 08:35:22;;;;;;;20.10;10.10;;;17.50;99.90;;;;;;5981558;24;20749;-64
2023/06/07 08:37:49;;;;;;;15.93;10.63;;;17.40;99.90;;;;;;5982275;24;20424;-63
2023/06/07 08:40:18;;;;;;;17.07;11.70;;;17.50;99.90;;;;;;5982093;24;20419;-63
2023/06/07 08:42:46;;;;;;;15.87;10.17;;;17.50;99.90;;;;;;5981901;24;20433;-63
2023/06/07 08:45:12;;;;;;;14.07;9.37;;;17.60;99.90;;;;;;5983523;24;20506;-63
2023/06/07 08:47:47;;;;;;;14.97;8.70;;;17.40;99.90;;;;;;5983880;24;20450;-64
2023/06/07 08:50:16;;;;;;;16.83;11.00;;;17.40;99.90;;;;;;5983988;24;20413;-63
2023/06/07 08:52:48;;;;;;;21.67;12.47;;;17.40;99.90;;;;;;5982693;24;20423;-63
2023/06/07 08:55:15;;;;;;;19.53;10.73;;;17.50;99.90;;;;;;5983122;24;20443;-64
2023/06/07 08:57:42;;;;;;;20.37;12.13;;;17.60;99.90;;;;;;5982517;24;20438;-64
2023/06/07 09:00:11;;;;;;;22.27;13.43;;;17.50;99.90;;;;;;5982873;24;20424;-64
2023/06/07 09:02:38;;;;;;;19.77;11.07;;;17.60;99.90;;;;;;5981032;24;20419;-64
2023/06/07 09:05:07;;;;;;;24.27;9.97;;;17.50;99.90;;;;;;5981585;24;20510;-63
2023/06/07 09:07:35;;;;;;;19.93;8.80;;;17.40;99.90;;;;;;5981151;24;20451;-63
2023/06/07 09:10:02;;;;;;;17.60;8.30;;;17.30;99.90;;;;;;5982158;24;20452;-63
2023/06/07 09:12:29;;;;;;;12.17;7.73;;;17.30;99.90;;;;;;5982166;24;20441;-63
2023/06/07 09:14:57;;;;;;;16.40;8.87;;;17.30;99.90;;;;;;5981728;24;20419;-63
2023/06/07 09:17:24;;;;;;;15.40;8.10;;;17.40;99.90;;;;;;5981717;24;20499;-63
2023/06/07 09:19:51;;;;;;;12.53;7.00;;;17.40;99.90;;;;;;5982132;24;20506;-63
2023/06/07 09:22:25;;;;;;;16.60;9.20;;;17.50;99.90;;;;;;5981823;24;20862;-63
2023/06/07 09:24:53;;;;;;;20.60;10.80;;;17.70;99.90;;;;;;5981099;24;20499;-63
2023/06/07 09:27:30;;;;;;;18.67;9.07;;;17.80;99.90;;;;;;5981914;24;20503;-63
2023/06/07 09:30:05;;;;;;;13.60;9.00;;;17.80;99.90;;;;;;5982530;24;20799;-63
2023/06/07 09:32:38;;;;;;;18.83;11.37;;;17.70;99.90;;;;;;5981374;24;20404;-63
2023/06/07 09:35:12;;;;;;;11.67;6.97;;;17.60;99.90;;;;;;5982178;24;20404;-63
2023/06/07 09:37:45;;;;;;;19.23;10.90;;;17.70;99.90;;;;;;5980864;24;20432;-63
2023/06/07 09:40:14;;;;;;;21.50;10.83;;;17.80;99.90;;;;;;5982388;24;20419;-63
2023/06/07 09:42:42;;;;;;;19.70;7.50;;;17.50;99.90;;;;;;5981476;24;20434;-63
2023/06/07 09:45:16;;;;;;;23.93;11.47;;;17.40;99.90;;;;;;5982551;24;20419;-63
2023/06/07 09:47:43;;;;;;;14.50;10.47;;;17.20;99.90;;;;;;5982250;24;20731;-63
2023/06/07 09:50:12;;;;;;;18.03;12.00;;;17.10;99.90;;;;;;5981984;24;20503;-63
2023/06/07 09:52:39;;;;;;;22.70;10.00;;;17.00;99.90;;;;;;5981826;24;20420;-63
2023/06/07 09:55:09;;;;;;;14.80;8.30;;;16.90;99.90;;;;;;5982346;24;20419;-63
2023/06/07 09:57:38;;;;;;;15.47;9.57;;;16.70;99.90;;;;;;5982357;24;20488;-63
2023/06/07 10:00:13;;;;;;;21.57;14.33;;;16.60;99.90;;;;;;5982196;24;20737;-63
2023/06/07 10:02:42;;;;;;;26.40;17.73;;;16.60;99.90;;;;;;5981442;24;20412;-63
2023/06/07 10:05:09;;;;;;;27.70;14.67;;;16.50;99.90;;;;;;5982174;24;20424;-63
2023/06/07 10:07:40;;;;;;;19.53;13.93;;;16.40;99.90;;;;;;5981219;24;20439;-63
2023/06/07 10:10:10;;;;;;;31.73;21.70;;;16.30;99.90;;;;;;5981884;24;20404;-63
2023/06/07 10:12:40;;;;;;;20.23;11.97;;;16.30;99.90;;;;;;5981972;24;20458;-63
2023/06/07 10:15:10;;;;;;;17.57;9.73;;;16.20;99.90;;;;;;5981590;24;20419;-63
2023/06/07 10:17:49;;;;;;;23.37;18.87;;;16.10;99.90;;;;;;5981923;24;20420;-63
2023/06/07 10:20:24;;;;;;;23.37;17.47;;;16.10;99.90;;;;;;5981853;24;20459;-63
2023/06/07 10:22:55;;;;;;;20.93;14.87;;;16.10;99.90;;;;;;5981431;24;20756;-62
2023/06/07 10:25:25;;;;;;;27.63;21.77;;;16.00;99.90;;;;;;5979245;24;20411;-62
2023/06/07 10:28:01;;;;;;;30.53;21.77;;;16.10;99.90;;;;;;5979951;24;20427;-62
2023/06/07 10:30:30;;;;;;;32.27;29.07;;;16.10;99.90;;;;;;5979970;24;20957;-62
2023/06/07 10:32:59;;;;;;;32.80;29.37;;;16.20;99.90;;;;;;5979409;24;20506;-62
2023/06/07 10:35:26;;;;;;;23.50;21.23;;;16.10;99.90;;;;;;5981069;24;20935;-62
2023/06/07 10:37:54;;;;;;;23.17;14.13;;;16.00;99.90;;;;;;5981073;24;20415;-62
2023/06/07 10:40:24;;;;;;;23.93;18.33;;;15.80;99.90;;;;;;5982419;24;20426;-62
2023/06/07 10:42:52;;;;;;;21.60;15.10;;;15.80;99.90;;;;;;5981992;24;20434;-62
2023/06/07 10:45:20;;;;;;;58.00;53.77;;;15.70;99.90;;;;;;5982637;24;20426;-62
2023/06/07 10:47:47;;;;;;;46.13;42.73;;;15.80;99.90;;;;;;5982046;24;20439;-62
2023/06/07 10:50:48;;;;;;;111.63;105.07;;;15.90;99.90;;;;;;5981922;24;20423;-62
2023/06/07 10:53:15;;;;;;;57.13;52.67;;;16.20;99.90;;;;;;5981665;24;20863;-62
2023/06/07 10:55:44;;;;;;;68.67;63.87;;;16.40;99.90;;;;;;5982078;24;20419;-62
2023/06/07 10:58:27;;;;;;;74.43;69.43;;;16.80;99.90;;;;;;5982024;24;20963;-62
2023/06/07 11:00:56;;;;;;;50.33;45.03;;;17.30;99.90;;;;;;5981966;24;20506;-62
2023/06/07 11:03:41;;;;;;;24.67;21.03;;;17.60;99.90;;;;;;5981411;24;20419;-62
2023/06/07 11:06:09;;;;;;;24.33;18.70;;;17.60;99.90;;;;;;5981513;24;20403;-63
2023/06/07 11:08:40;;;;;;;25.87;17.00;;;17.70;99.90;;;;;;5980892;24;20594;-63
2023/06/07 11:11:48;;;;;;;27.53;17.70;;;17.80;99.90;;;;;;5981819;24;20404;-63
2023/06/07 11:14:16;;;;;;;27.73;13.53;;;18.00;99.90;;;;;;5981537;24;20439;-63
2023/06/07 11:16:43;;;;;;;31.20;18.87;;;18.00;99.90;;;;;;5981964;24;20420;-63
2023/06/07 11:19:13;;;;;;;35.10;21.93;;;18.20;99.90;;;;;;5981197;24;20935;-63
2023/06/07 11:22:00;;;;;;;23.63;15.90;;;19.20;99.90;;;;;;5981694;24;20921;-64
2023/06/07 11:24:27;;;;;;;35.83;21.27;;;19.50;99.90;;;;;;5981606;24;20415;-64
2023/06/07 11:26:54;;;;;;;32.50;18.30;;;19.80;99.90;;;;;;5981315;24;20415;-63
2023/06/07 11:29:22;;;;;;;22.63;13.67;;;20.00;99.90;;;;;;5981891;24;20440;-64
2023/06/07 11:31:56;;;;;;;26.17;18.90;;;20.20;99.90;;;;;;5980994;24;20920;-63
2023/06/07 11:34:23;;;;;;;27.30;20.27;;;21.30;99.90;;;;;;5982617;24;20456;-63
2023/06/07 11:36:52;;;;;;;33.67;23.53;;;21.00;96.30;;;;;;5981645;24;20752;-63
2023/06/07 11:39:20;;;;;;;33.70;23.70;;;21.00;98.90;;;;;;5983011;24;20950;-64
2023/06/07 11:41:47;;;;;;;28.13;17.17;;;20.40;99.00;;;;;;5982989;24;20822;-63
2023/06/07 11:44:14;;;;;;;36.47;28.07;;;20.40;98.60;;;;;;5982416;24;20424;-63
2023/06/07 11:46:42;;;;;;;37.80;28.10;;;20.20;99.00;;;;;;5982452;24;20430;-63
2023/06/07 11:49:10;;;;;;;41.23;25.57;;;19.90;99.90;;;;;;5991954;24;20451;-63
2023/06/07 11:51:37;;;;;;;29.37;20.27;;;19.70;99.90;;;;;;5983480;24;20788;-63
2023/06/07 11:54:04;;;;;;;34.20;23.80;;;19.40;99.90;;;;;;5983036;24;20419;-63
2023/06/07 11:56:33;;;;;;;28.87;20.17;;;19.50;99.90;;;;;;5983329;24;20419;-63
2023/06/07 11:59:00;;;;;;;38.13;26.37;;;20.10;99.80;;;;;;5982851;24;20479;-63
2023/06/07 12:01:27;;;;;;;33.87;24.77;;;20.90;97.90;;;;;;5982901;24;20420;-63
2023/06/07 12:03:56;;;;;;;36.90;21.53;;;21.20;94.30;;;;;;5982135;24;20483;-63
2023/06/07 12:06:26;;;;;;;35.13;24.93;;;21.20;95.20;;;;;;5983732;24;20511;-63
2023/06/07 12:08:52;;;;;;;36.20;27.47;;;21.20;95.60;;;;;;5981656;24;20439;-63
2023/06/07 12:11:23;;;;;;;33.17;23.83;;;21.10;95.60;;;;;;5983096;24;20420;-63
2023/06/07 12:13:53;;;;;;;37.27;21.10;;;21.10;95.10;;;;;;5981936;24;20901;-63
2023/06/07 12:16:21;;;;;;;36.60;23.73;;;21.30;93.80;;;;;;5983148;24;20426;-63
2023/06/07 12:18:48;;;;;;;36.33;22.10;;;21.00;93.50;;;;;;5982878;24;20419;-63
2023/06/07 12:21:18;;;;;;;30.87;18.87;;;21.40;94.50;;;;;;5982874;24;20419;-62
2023/06/07 12:23:50;;;;;;;24.87;16.67;;;21.60;92.30;;;;;;5982820;24;20495;-63
2023/06/07 12:26:19;;;;;;;27.60;18.00;;;21.90;91.30;;;;;;5983309;24;20411;-63
2023/06/07 12:28:49;;;;;;;27.70;20.17;;;22.20;90.00;;;;;;5982746;24;20450;-63